createdAt,value
2022-07-31T00:00:25.946Z,1.95
2022-07-31T00:02:53.154Z,2.42
2022-07-31T00:05:20.273Z,1.77
2022-07-31T00:07:47.509Z,1.77
2022-07-31T00:10:14.868Z,2.25
2022-07-31T00:12:41.983Z,2.38
2022-07-31T00:15:10.487Z,2.15
2022-07-31T00:17:41.781Z,1.77
2022-07-31T00:20:14.956Z,1.90
2022-07-31T00:22:46.330Z,1.80
2022-07-31T00:25:15.119Z,3.00
2022-07-31T00:27:42.822Z,1.75
2022-07-31T00:30:12.997Z,2.20
2022-07-31T00:32:41.983Z,2.30
2022-07-31T00:35:10.506Z,1.70
2022-07-31T00:37:40.348Z,2.35
2022-07-31T00:40:10.923Z,1.90
2022-07-31T00:42:38.085Z,2.45
2022-07-31T00:45:05.943Z,2.20
2022-07-31T00:47:33.161Z,2.65
2022-07-31T00:50:01.029Z,2.70
2022-07-31T00:52:28.192Z,2.22
2022-07-31T00:54:55.368Z,2.35
2022-07-31T00:57:22.512Z,1.67
2022-07-31T00:59:49.991Z,2.20
2022-07-31T01:02:17.375Z,2.40
2022-07-31T01:04:45.884Z,2.13
2022-07-31T01:07:13.153Z,2.25
2022-07-31T01:09:40.314Z,2.47
2022-07-31T01:12:14.236Z,2.35
2022-07-31T01:14:47.831Z,1.92
2022-07-31T01:17:16.801Z,2.17
2022-07-31T01:19:46.732Z,2.75
2022-07-31T01:25:41.745Z,2.20
2022-07-31T01:28:39.507Z,2.03
2022-07-31T01:31:26.236Z,1.63
2022-07-31T01:34:11.345Z,1.42
2022-07-31T01:36:44.644Z,1.73
2022-07-31T01:39:12.807Z,2.50
2022-07-31T01:41:45.989Z,1.80
2022-07-31T01:44:15.505Z,2.50
2022-07-31T01:46:44.840Z,1.98
2022-07-31T01:49:13.706Z,1.98
2022-07-31T01:51:44.265Z,1.70
2022-07-31T01:54:14.167Z,1.73
2022-07-31T01:56:42.191Z,2.75
2022-07-31T01:59:17.096Z,1.77
2022-07-31T02:02:06.806Z,2.08
2022-07-31T02:04:38.046Z,1.70
2022-07-31T02:07:08.175Z,2.03
2022-07-31T02:09:37.175Z,1.77
2022-07-31T02:12:09.718Z,1.98
2022-07-31T02:14:42.400Z,2.30
2022-07-31T02:17:13.199Z,1.60
2022-07-31T02:20:16.471Z,1.88
2022-07-31T02:22:43.699Z,1.90
2022-07-31T02:25:11.231Z,2.22
2022-07-31T02:27:57.041Z,2.25
2022-07-31T02:30:39.684Z,1.73
2022-07-31T02:33:16.947Z,2.10
2022-07-31T02:35:48.095Z,1.70
2022-07-31T02:38:23.272Z,1.93
2022-07-31T02:40:59.769Z,2.17
2022-07-31T02:43:30.939Z,2.42
2022-07-31T02:46:01.288Z,2.08
2022-07-31T02:48:29.973Z,2.38
2022-07-31T02:51:01.746Z,2.38
2022-07-31T02:53:29.789Z,2.30
2022-07-31T02:56:04.295Z,2.20
2022-07-31T02:58:33.541Z,2.22
2022-07-31T03:01:04.431Z,2.13
2022-07-31T03:03:33.341Z,2.53
2022-07-31T03:06:00.888Z,2.03
2022-07-31T03:08:28.663Z,2.25
2022-07-31T03:10:59.312Z,2.58
2022-07-31T03:13:29.112Z,2.10
2022-07-31T03:15:57.177Z,2.60
2022-07-31T03:18:26.560Z,1.77
2022-07-31T03:20:55.045Z,2.40
2022-07-31T03:23:25.240Z,2.33
2022-07-31T03:25:58.323Z,2.47
2022-07-31T03:28:25.451Z,1.95
2022-07-31T03:30:55.155Z,1.75
2022-07-31T03:33:25.819Z,1.98
2022-07-31T03:35:53.428Z,1.90
2022-07-31T03:38:42.284Z,2.45
2022-07-31T03:41:09.222Z,2.30
2022-07-31T03:43:44.376Z,2.40
2022-07-31T03:46:19.611Z,2.47
2022-07-31T03:48:51.998Z,2.58
2022-07-31T03:51:19.743Z,2.20
2022-07-31T03:53:48.100Z,2.65
2022-07-31T03:56:34.975Z,2.58
2022-07-31T03:59:03.899Z,2.65
2022-07-31T04:01:57.882Z,2.40
2022-07-31T04:04:26.892Z,2.95
2022-07-31T04:06:59.235Z,1.92
2022-07-31T04:09:27.182Z,2.20
2022-07-31T04:11:54.317Z,2.55
2022-07-31T04:14:21.829Z,2.17
2022-07-31T04:16:49.205Z,2.13
2022-07-31T04:19:16.387Z,1.98
2022-07-31T04:21:43.554Z,2.35
2022-07-31T04:24:11.693Z,2.50
2022-07-31T04:27:17.522Z,2.25
2022-07-31T04:29:45.862Z,2.50
2022-07-31T04:32:13.127Z,2.45
2022-07-31T04:34:54.427Z,2.17
2022-07-31T04:37:22.070Z,2.03
2022-07-31T04:39:49.619Z,2.35
2022-07-31T04:42:16.922Z,2.10
2022-07-31T04:44:45.200Z,2.35
2022-07-31T04:47:12.630Z,2.10
2022-07-31T04:49:43.223Z,2.83
2022-07-31T04:52:13.221Z,2.78
2022-07-31T04:54:43.527Z,2.60
2022-07-31T04:57:12.083Z,3.05
2022-07-31T04:59:59.220Z,2.63
2022-07-31T05:02:26.514Z,2.70
2022-07-31T05:04:56.616Z,2.90
2022-07-31T05:07:27.645Z,2.67
2022-07-31T05:09:58.718Z,2.67
2022-07-31T05:12:26.939Z,2.70
2022-07-31T05:14:54.854Z,2.17
2022-07-31T05:17:22.315Z,2.35
2022-07-31T05:20:02.318Z,3.38
2022-07-31T05:22:58.775Z,2.85
2022-07-31T05:25:44.542Z,2.38
2022-07-31T05:28:12.075Z,2.53
2022-07-31T05:30:39.546Z,3.20
2022-07-31T05:33:06.959Z,2.80
2022-07-31T05:35:34.280Z,2.50
2022-07-31T05:38:01.388Z,2.80
2022-07-31T05:40:49.004Z,2.03
2022-07-31T05:43:54.525Z,2.65
2022-07-31T05:46:25.469Z,2.33
2022-07-31T05:48:52.602Z,2.70
2022-07-31T05:51:20.473Z,2.40
2022-07-31T05:53:49.250Z,2.60
2022-07-31T05:56:42.780Z,2.33
2022-07-31T05:59:10.903Z,2.00
2022-07-31T06:01:39.927Z,2.03
2022-07-31T06:04:07.128Z,2.20
2022-07-31T06:06:40.650Z,2.10
2022-07-31T06:09:07.865Z,2.20
2022-07-31T06:11:38.043Z,2.20
2022-07-31T06:14:05.174Z,2.60
2022-07-31T06:16:50.346Z,2.03
2022-07-31T06:19:18.742Z,2.63
2022-07-31T06:21:53.859Z,2.10
2022-07-31T06:24:22.526Z,2.05
2022-07-31T06:26:49.873Z,2.30
2022-07-31T06:29:17.354Z,2.20
2022-07-31T06:31:44.730Z,2.35
2022-07-31T06:34:11.959Z,2.65
2022-07-31T06:36:41.864Z,2.28
2022-07-31T06:39:13.082Z,2.13
2022-07-31T06:42:03.410Z,3.03
2022-07-31T06:44:33.163Z,2.55
2022-07-31T06:47:21.988Z,2.08
2022-07-31T06:50:05.781Z,2.30
2022-07-31T06:52:39.091Z,2.38
2022-07-31T06:55:07.828Z,2.28
2022-07-31T06:57:35.378Z,2.33
2022-07-31T07:00:15.034Z,2.13
2022-07-31T07:02:46.971Z,2.03
2022-07-31T07:05:14.564Z,2.33
2022-07-31T07:07:41.788Z,2.45
2022-07-31T07:10:09.548Z,2.15
2022-07-31T07:12:59.176Z,2.38
2022-07-31T07:15:27.790Z,1.70
2022-07-31T07:17:56.229Z,2.50
2022-07-31T07:20:34.329Z,1.95
2022-07-31T07:23:01.762Z,2.15
2022-07-31T07:25:46.140Z,2.05
2022-07-31T07:28:30.596Z,1.90
2022-07-31T07:31:00.822Z,2.58
2022-07-31T07:33:41.335Z,1.80
2022-07-31T07:36:24.685Z,1.80
2022-07-31T07:38:56.826Z,1.80
2022-07-31T07:41:25.579Z,2.22
2022-07-31T07:43:53.415Z,2.10
2022-07-31T07:46:24.030Z,2.60
2022-07-31T07:48:55.214Z,2.17
2022-07-31T07:52:00.803Z,1.98
2022-07-31T07:54:40.888Z,2.03
2022-07-31T07:57:31.215Z,2.13
2022-07-31T08:00:16.610Z,1.70
2022-07-31T08:03:47.697Z,1.70
2022-07-31T08:05:39.123Z,2.05
2022-07-31T08:08:06.368Z,1.67
2022-07-31T08:10:52.451Z,1.70
2022-07-31T08:13:35.324Z,1.60
2022-07-31T08:16:24.319Z,1.65
2022-07-31T08:18:54.992Z,1.83
2022-07-31T08:21:22.760Z,2.17
2022-07-31T08:23:50.002Z,1.70
2022-07-31T08:26:18.691Z,1.55
2022-07-31T08:28:50.387Z,2.03
2022-07-31T08:31:20.363Z,1.48
2022-07-31T08:34:31.801Z,2.17
2022-07-31T08:37:51.010Z,1.98
2022-07-31T08:39:51.634Z,1.60
2022-07-31T08:42:19.110Z,1.58
2022-07-31T08:44:46.967Z,1.98
2022-07-31T08:47:17.362Z,2.13
2022-07-31T08:49:47.537Z,2.40
2022-07-31T08:52:23.951Z,2.10
2022-07-31T08:55:09.875Z,1.63
2022-07-31T08:57:37.154Z,2.25
2022-07-31T09:00:10.770Z,1.48
2022-07-31T09:02:40.601Z,1.60
2022-07-31T09:05:42.016Z,1.60
2022-07-31T09:08:14.607Z,1.38
2022-07-31T09:10:49.264Z,1.48
2022-07-31T09:13:19.041Z,2.00
2022-07-31T09:15:47.588Z,1.33
2022-07-31T09:18:21.345Z,1.50
2022-07-31T09:21:04.737Z,1.75
2022-07-31T09:23:32.986Z,1.63
2022-07-31T09:26:02.796Z,1.63
2022-07-31T09:28:35.006Z,2.08
2022-07-31T09:31:04.136Z,2.15
2022-07-31T09:33:49.856Z,2.05
2022-07-31T09:36:46.481Z,1.90
2022-07-31T09:39:31.952Z,2.17
2022-07-31T09:42:22.765Z,1.98
2022-07-31T09:45:03.747Z,1.90
2022-07-31T09:47:33.066Z,1.70
2022-07-31T09:50:05.965Z,2.35
2022-07-31T09:52:33.789Z,1.63
2022-07-31T09:55:15.514Z,1.85
2022-07-31T09:57:56.987Z,1.77
2022-07-31T10:00:27.282Z,1.95
2022-07-31T10:02:55.965Z,1.77
2022-07-31T10:05:26.494Z,1.75
2022-07-31T10:08:00.679Z,2.13
2022-07-31T10:10:49.569Z,1.90
2022-07-31T10:13:25.736Z,1.77
2022-07-31T10:15:59.232Z,1.70
2022-07-31T10:19:00.345Z,1.75
2022-07-31T10:22:05.441Z,1.65
2022-07-31T10:24:43.228Z,2.00
2022-07-31T10:27:12.552Z,1.60
2022-07-31T10:29:42.193Z,2.15
2022-07-31T10:32:10.173Z,1.95
2022-07-31T10:35:00.476Z,1.58
2022-07-31T10:38:12.561Z,1.75
2022-07-31T10:41:18.884Z,2.42
2022-07-31T10:43:57.157Z,1.83
2022-07-31T10:46:47.397Z,1.90
2022-07-31T10:49:46.391Z,1.83
2022-07-31T10:52:39.917Z,2.30
2022-07-31T10:55:30.156Z,1.52
2022-07-31T10:58:22.016Z,1.55
2022-07-31T11:01:06.248Z,1.73
2022-07-31T11:04:00.349Z,1.50
2022-07-31T11:06:48.711Z,1.95
2022-07-31T11:09:34.497Z,1.63
2022-07-31T11:12:36.938Z,1.67
2022-07-31T11:15:24.616Z,1.25
2022-07-31T11:18:24.392Z,1.50
2022-07-31T11:21:28.783Z,1.75
2022-07-31T11:23:55.682Z,1.93
2022-07-31T11:26:33.496Z,1.70
2022-07-31T11:29:59.105Z,1.58
2022-07-31T11:32:05.070Z,1.60
2022-07-31T11:34:46.033Z,1.90
2022-07-31T11:37:20.723Z,1.85
2022-07-31T11:39:51.534Z,1.58
2022-07-31T11:42:26.573Z,1.40
2022-07-31T11:45:11.277Z,1.85
2022-07-31T11:48:12.360Z,1.38
2022-07-31T11:50:43.059Z,1.45
2022-07-31T11:53:11.072Z,1.38
2022-07-31T11:55:53.913Z,1.20
2022-07-31T11:58:22.729Z,1.60
2022-07-31T12:00:52.235Z,0.90
2022-07-31T12:03:21.625Z,1.10
2022-07-31T12:05:50.935Z,1.25
2022-07-31T12:08:19.095Z,1.02
2022-07-31T12:10:47.837Z,1.08
2022-07-31T12:13:17.404Z,0.85
2022-07-31T12:15:59.501Z,1.17
2022-07-31T12:18:28.946Z,1.00
2022-07-31T12:21:03.052Z,0.90
2022-07-31T12:23:45.211Z,0.68
2022-07-31T12:26:23.952Z,0.82
2022-07-31T12:28:58.831Z,0.60
2022-07-31T12:31:26.486Z,0.57
2022-07-31T12:33:53.626Z,0.80
2022-07-31T12:36:21.618Z,0.60
2022-07-31T12:39:03.745Z,0.70
2022-07-31T12:41:41.145Z,0.98
2022-07-31T12:44:14.582Z,0.80
2022-07-31T12:46:42.081Z,0.77
2022-07-31T12:49:09.457Z,0.75
2022-07-31T12:51:44.807Z,0.75
2022-07-31T12:54:16.476Z,0.80
2022-07-31T12:56:44.902Z,0.65
2022-07-31T12:59:12.969Z,0.40
2022-07-31T13:01:40.372Z,0.43
2022-07-31T13:04:19.077Z,0.40
2022-07-31T13:06:48.828Z,0.52
2022-07-31T13:09:16.579Z,0.40
2022-07-31T13:11:46.209Z,0.70
2022-07-31T13:14:19.501Z,0.60
2022-07-31T13:16:47.495Z,0.63
2022-07-31T13:19:15.472Z,0.40
2022-07-31T13:21:48.986Z,0.40
2022-07-31T13:24:19.385Z,0.70
2022-07-31T13:26:47.857Z,0.88
2022-07-31T13:29:15.292Z,1.05
2022-07-31T13:31:42.444Z,0.57
2022-07-31T13:34:09.554Z,0.40
2022-07-31T13:36:39.281Z,0.30
2022-07-31T13:39:10.880Z,0.40
2022-07-31T13:41:39.505Z,0.43
2022-07-31T13:44:07.809Z,0.40
2022-07-31T13:46:35.429Z,0.38
2022-07-31T13:49:08.265Z,0.60
2022-07-31T13:51:36.819Z,0.40
2022-07-31T13:54:04.940Z,0.60
2022-07-31T13:56:39.069Z,0.47
2022-07-31T13:59:12.349Z,0.50
2022-07-31T14:02:04.492Z,0.73
2022-07-31T14:04:32.485Z,0.43
2022-07-31T14:07:06.767Z,0.45
2022-07-31T14:09:34.893Z,0.90
2022-07-31T14:12:04.323Z,0.50
2022-07-31T14:14:32.211Z,0.30
2022-07-31T14:16:59.465Z,0.45
2022-07-31T14:19:26.677Z,0.25
2022-07-31T14:21:56.725Z,0.30
2022-07-31T14:24:40.337Z,0.38
2022-07-31T14:27:08.312Z,0.50
2022-07-31T14:29:36.175Z,0.60
2022-07-31T14:32:03.810Z,0.50
2022-07-31T14:34:35.835Z,0.40
2022-07-31T14:39:30.991Z,0.28
2022-07-31T14:41:58.185Z,0.63
2022-07-31T14:44:28.622Z,0.40
2022-07-31T14:46:56.471Z,0.50
2022-07-31T14:49:23.701Z,0.20
2022-07-31T14:51:50.838Z,0.30
2022-07-31T14:54:17.971Z,0.38
2022-07-31T14:57:00.716Z,0.68
2022-07-31T14:59:30.053Z,0.40
2022-07-31T15:01:58.056Z,0.40
2022-07-31T15:04:25.626Z,0.35
2022-07-31T15:07:07.594Z,0.70
2022-07-31T15:09:40.061Z,0.50
2022-07-31T15:12:07.639Z,0.30
2022-07-31T15:14:35.394Z,0.30
2022-07-31T15:17:02.629Z,0.30
2022-07-31T15:19:30.049Z,0.30
2022-07-31T15:22:10.931Z,0.40
2022-07-31T15:24:49.195Z,0.40
2022-07-31T15:27:18.653Z,0.30
2022-07-31T15:30:00.365Z,0.40
2022-07-31T15:32:37.888Z,0.20
2022-07-31T15:35:07.450Z,0.60
2022-07-31T15:37:36.603Z,1.00
2022-07-31T15:40:09.101Z,0.63
2022-07-31T15:42:40.330Z,0.40
2022-07-31T15:45:16.251Z,0.90
2022-07-31T15:47:44.790Z,1.17
2022-07-31T15:50:15.533Z,1.00
2022-07-31T15:52:43.458Z,0.68
2022-07-31T15:55:11.670Z,0.57
2022-07-31T15:57:39.440Z,0.90
2022-07-31T16:00:10.569Z,0.60
2022-07-31T16:02:42.441Z,0.60
2022-07-31T16:05:12.021Z,0.28
2022-07-31T16:08:28.876Z,0.35
2022-07-31T16:10:36.848Z,0.32
2022-07-31T16:13:04.746Z,0.30
2022-07-31T16:15:32.208Z,0.30
2022-07-31T16:17:59.378Z,0.43
2022-07-31T16:20:27.340Z,0.70
2022-07-31T16:22:58.068Z,0.70
2022-07-31T16:25:26.964Z,0.60
2022-07-31T16:27:55.004Z,0.50
2022-07-31T16:30:22.351Z,0.50
2022-07-31T16:32:50.230Z,0.55
2022-07-31T16:35:17.710Z,0.47
2022-07-31T16:37:49.964Z,0.60
2022-07-31T16:40:30.244Z,0.40
2022-07-31T16:43:01.446Z,0.50
2022-07-31T16:45:29.905Z,0.30
2022-07-31T16:47:57.582Z,0.40
2022-07-31T16:50:25.352Z,0.50
2022-07-31T16:52:54.845Z,0.50
2022-07-31T16:55:46.073Z,0.40
2022-07-31T16:58:15.116Z,0.57
2022-07-31T17:00:42.457Z,0.60
2022-07-31T17:03:59.521Z,0.63
2022-07-31T17:05:57.361Z,0.47
2022-07-31T17:08:24.768Z,0.35
2022-07-31T17:10:54.673Z,0.40
2022-07-31T17:13:23.222Z,0.60
2022-07-31T17:15:50.698Z,0.40
2022-07-31T17:18:17.983Z,0.60
2022-07-31T17:20:47.161Z,0.60
2022-07-31T17:23:15.837Z,0.30
2022-07-31T17:25:43.194Z,0.32
2022-07-31T17:28:14.982Z,0.45
2022-07-31T17:30:45.012Z,0.60
2022-07-31T17:33:12.740Z,0.50
2022-07-31T17:35:40.229Z,0.80
2022-07-31T17:38:07.558Z,0.40
2022-07-31T17:40:43.391Z,0.50
2022-07-31T17:43:11.207Z,0.63
2022-07-31T17:45:59.852Z,0.50
2022-07-31T17:48:29.072Z,0.50
2022-07-31T17:50:56.294Z,0.55
2022-07-31T17:53:23.930Z,0.80
2022-07-31T17:55:58.602Z,0.75
2022-07-31T17:58:25.749Z,0.70
2022-07-31T18:00:53.197Z,0.85
2022-07-31T18:03:20.733Z,1.10
2022-07-31T18:05:47.932Z,1.75
2022-07-31T18:08:15.224Z,1.25
2022-07-31T18:10:53.891Z,1.92
2022-07-31T18:13:21.845Z,1.20
2022-07-31T18:15:49.151Z,1.00
2022-07-31T18:18:16.388Z,1.08
2022-07-31T18:20:45.642Z,1.00
2022-07-31T18:23:14.450Z,1.30
2022-07-31T18:25:42.284Z,1.30
2022-07-31T18:28:09.477Z,1.50
2022-07-31T18:30:41.083Z,0.95
2022-07-31T18:33:10.008Z,1.13
2022-07-31T18:35:37.189Z,1.40
2022-07-31T18:38:13.732Z,1.33
2022-07-31T18:40:41.110Z,0.93
2022-07-31T18:43:09.086Z,0.93
2022-07-31T18:45:36.250Z,1.10
2022-07-31T18:48:08.973Z,1.10
2022-07-31T18:51:01.368Z,0.90
2022-07-31T18:53:23.373Z,0.80
2022-07-31T18:55:50.465Z,0.93
2022-07-31T18:58:17.621Z,0.85
2022-07-31T19:00:44.803Z,0.57
2022-07-31T19:03:12.052Z,0.77
2022-07-31T19:05:39.977Z,1.10
2022-07-31T19:08:07.092Z,0.98
2022-07-31T19:10:34.206Z,0.73
2022-07-31T19:13:02.007Z,0.70
2022-07-31T19:15:29.232Z,0.90
2022-07-31T19:17:58.774Z,0.95
2022-07-31T19:20:56.391Z,0.93
2022-07-31T19:23:17.105Z,0.98
2022-07-31T19:26:02.117Z,1.05
2022-07-31T19:28:32.379Z,0.82
2022-07-31T19:31:00.114Z,0.98
2022-07-31T19:33:27.460Z,1.27
2022-07-31T19:36:00.890Z,1.25
2022-07-31T19:38:30.078Z,1.27
2022-07-31T19:40:57.216Z,1.38
2022-07-31T19:43:24.394Z,1.20
2022-07-31T19:46:10.888Z,1.23
2022-07-31T19:48:45.916Z,1.23
2022-07-31T19:51:15.888Z,1.15
2022-07-31T19:53:44.547Z,1.08
2022-07-31T19:56:16.880Z,1.27
2022-07-31T19:58:47.134Z,1.20
2022-07-31T20:01:14.496Z,0.82
2022-07-31T20:03:41.844Z,1.98
2022-07-31T20:06:09.097Z,1.50
2022-07-31T20:08:36.518Z,1.27
2022-07-31T20:11:05.399Z,1.60
2022-07-31T20:13:33.886Z,1.00
2022-07-31T20:16:02.040Z,1.08
2022-07-31T20:18:30.773Z,1.17
2022-07-31T20:21:02.736Z,1.60
2022-07-31T20:23:31.187Z,1.60
2022-07-31T20:25:58.791Z,1.55
2022-07-31T20:28:27.098Z,1.42
2022-07-31T20:30:54.627Z,2.08
2022-07-31T20:33:21.918Z,1.30
2022-07-31T20:35:50.330Z,2.20
2022-07-31T20:38:22.489Z,1.83
2022-07-31T20:40:54.510Z,2.05
2022-07-31T20:43:24.162Z,1.42
2022-07-31T20:45:52.091Z,1.40
2022-07-31T20:48:21.095Z,1.50
2022-07-31T20:50:48.648Z,1.00
2022-07-31T20:53:16.996Z,1.40
2022-07-31T20:55:49.752Z,1.65
2022-07-31T20:58:18.960Z,1.70
2022-07-31T21:00:47.705Z,1.65
2022-07-31T21:03:16.591Z,1.67
2022-07-31T21:05:44.237Z,1.75
2022-07-31T21:08:12.131Z,1.30
2022-07-31T21:10:40.151Z,1.48
2022-07-31T21:13:08.175Z,1.98
2022-07-31T21:15:42.868Z,1.42
2022-07-31T21:18:21.538Z,1.60
2022-07-31T21:20:53.484Z,1.55
2022-07-31T21:25:50.106Z,1.40
2022-07-31T21:28:17.850Z,1.88
2022-07-31T21:30:45.641Z,1.58
2022-07-31T21:33:13.198Z,1.48
2022-07-31T21:35:40.757Z,1.63
2022-07-31T21:38:15.148Z,1.80
2022-07-31T21:40:43.239Z,1.60
2022-07-31T21:43:12.444Z,1.58
2022-07-31T21:45:51.131Z,1.90
2022-07-31T21:48:25.618Z,2.10
2022-07-31T21:50:53.681Z,1.60
2022-07-31T21:53:21.164Z,1.70
2022-07-31T21:55:49.065Z,2.15
2022-07-31T21:58:16.783Z,2.08
2022-07-31T22:00:44.857Z,2.10
2022-07-31T22:03:12.133Z,2.10
2022-07-31T22:05:58.049Z,1.73
2022-07-31T22:08:25.196Z,2.17
2022-07-31T22:10:52.914Z,2.15
2022-07-31T22:13:20.891Z,2.17
2022-07-31T22:15:51.535Z,2.30
2022-07-31T22:18:29.437Z,2.03
2022-07-31T22:20:57.923Z,2.17
2022-07-31T22:23:27.077Z,1.95
2022-07-31T22:25:54.804Z,1.83
2022-07-31T22:28:23.891Z,1.90
2022-07-31T22:30:52.159Z,1.80
2022-07-31T22:33:20.034Z,1.90
2022-07-31T22:35:58.117Z,2.08
2022-07-31T22:38:27.409Z,2.33
2022-07-31T22:40:54.694Z,1.80
2022-07-31T22:44:10.245Z,1.80
2022-07-31T22:46:11.629Z,1.70
2022-07-31T22:48:40.875Z,1.60
2022-07-31T22:51:12.667Z,1.80
2022-07-31T22:53:41.776Z,2.03
2022-07-31T22:56:08.897Z,2.15
2022-07-31T22:58:36.037Z,1.75
2022-07-31T23:01:03.840Z,1.95
2022-07-31T23:03:30.940Z,1.67
2022-07-31T23:06:02.542Z,1.95
2022-07-31T23:08:45.188Z,1.60
2022-07-31T23:11:12.793Z,1.73
2022-07-31T23:13:40.039Z,1.52
2022-07-31T23:16:07.132Z,1.90
2022-07-31T23:18:34.375Z,1.90
2022-07-31T23:21:01.551Z,1.42
2022-07-31T23:23:28.683Z,1.60
2022-07-31T23:25:55.778Z,1.80
2022-07-31T23:28:22.907Z,2.08
2022-07-31T23:30:50.316Z,1.73
2022-07-31T23:33:18.765Z,1.85
2022-07-31T23:35:45.899Z,2.00
2022-07-31T23:38:13.050Z,2.40
2022-07-31T23:40:40.139Z,2.22
2022-07-31T23:43:07.331Z,2.08
2022-07-31T23:45:36.014Z,1.85
2022-07-31T23:48:06.199Z,2.20
2022-07-31T23:50:34.259Z,1.98
2022-07-31T23:53:01.354Z,1.65
2022-07-31T23:55:28.509Z,2.22
2022-07-31T23:57:55.650Z,1.90
